Crisnee, Belgium
Current Conditions -  °F | °C
As of 8:50 AM on Saturday 20 Dec 2014 (Local Time) from EBLG Reporting Station
Few Clouds Few Clouds  
Wind Chill: 32°   Ceiling: Unl
Heat Index: 41°   Visibility: 6mi
Dew Point: 36°   Wind: 18mph
Humidity: 81%   Direction: 240°WSW
Pressure: 30.21"   Gusts: NA
Location:  50.72°N, 5.4°E
Report Text: EBLG 200750Z 24016KT 9999 FEW036 05/02 Q1023 NOSIG
Loading
Personal Weather Stations






























Interactive Weather Map New forecast layout! Learn more

10-Day Weather Forecast

Advertisements
Track Severe Weather on mobile